createdAt,value
2022-08-23T00:00:13.708Z,21.79
2022-08-23T00:01:12.918Z,21.79
2022-08-23T00:02:22.730Z,21.78
2022-08-23T00:03:14.937Z,21.78
2022-08-23T00:04:13.845Z,21.79
2022-08-23T00:05:12.903Z,21.79
2022-08-23T00:06:12.864Z,21.78
2022-08-23T00:07:13.812Z,21.78
2022-08-23T00:08:12.843Z,21.76
2022-08-23T00:09:12.825Z,21.78
2022-08-23T00:10:12.827Z,21.76
2022-08-23T00:11:12.818Z,21.76
2022-08-23T00:12:13.757Z,21.75
2022-08-23T00:13:12.788Z,21.75
2022-08-23T00:14:12.764Z,21.76
2022-08-23T00:15:12.783Z,21.75
2022-08-23T00:16:12.770Z,21.76
2022-08-23T00:17:12.740Z,21.76
2022-08-23T00:18:13.728Z,21.76
2022-08-23T00:19:13.716Z,21.74
2022-08-23T00:20:12.699Z,21.78
2022-08-23T00:21:12.698Z,21.78
2022-08-23T00:22:12.707Z,21.76
2022-08-23T00:23:12.672Z,21.76
2022-08-23T00:24:12.649Z,21.75
2022-08-23T00:25:12.659Z,21.75
2022-08-23T00:26:12.639Z,21.75
2022-08-23T00:27:12.645Z,21.74
2022-08-23T00:28:14.971Z,21.74
2022-08-23T00:29:12.620Z,21.72
2022-08-23T00:30:12.595Z,21.72
2022-08-23T00:31:12.586Z,21.71
2022-08-23T00:32:12.592Z,21.67
2022-08-23T00:33:12.563Z,21.69
2022-08-23T00:34:13.523Z,21.67
2022-08-23T00:35:12.544Z,21.67
2022-08-23T00:36:13.534Z,21.66
2022-08-23T00:37:13.468Z,21.64
2022-08-23T00:38:33.109Z,21.63
2022-08-23T00:39:13.519Z,21.61
2022-08-23T00:40:12.515Z,21.63
2022-08-23T00:41:12.479Z,21.61
2022-08-23T00:42:13.444Z,21.60
2022-08-23T00:43:12.466Z,21.60
2022-08-23T00:44:12.437Z,21.59
2022-08-23T00:45:12.456Z,21.57
2022-08-23T00:46:12.420Z,21.57
2022-08-23T00:47:12.403Z,21.54
2022-08-23T00:48:12.402Z,21.54
2022-08-23T00:49:12.389Z,21.51
2022-08-23T00:50:23.346Z,21.50
2022-08-23T00:51:13.379Z,21.50
2022-08-23T00:52:12.345Z,21.48
2022-08-23T00:53:12.341Z,21.46
2022-08-23T00:54:12.328Z,21.46
2022-08-23T00:55:12.312Z,21.45
2022-08-23T00:56:12.335Z,21.44
2022-08-23T00:57:12.294Z,21.42
2022-08-23T00:58:12.274Z,21.44
2022-08-23T00:59:12.274Z,21.39
2022-08-23T01:00:13.231Z,21.41
2022-08-23T01:01:12.313Z,21.41
2022-08-23T01:02:12.386Z,21.39
2022-08-23T01:03:12.231Z,21.39
2022-08-23T01:04:12.229Z,21.38
2022-08-23T01:05:12.204Z,21.38
2022-08-23T01:06:12.188Z,21.38
2022-08-23T01:07:12.196Z,21.38
2022-08-23T01:08:12.179Z,21.39
2022-08-23T01:09:12.180Z,21.38
2022-08-23T01:10:14.950Z,21.39
2022-08-23T01:11:13.152Z,21.39
2022-08-23T01:12:12.127Z,21.38
2022-08-23T01:13:12.131Z,21.38
2022-08-23T01:14:12.121Z,21.38
2022-08-23T01:15:12.090Z,21.38
2022-08-23T01:16:12.079Z,21.36
2022-08-23T01:17:12.073Z,21.38
2022-08-23T01:18:12.061Z,21.36
2022-08-23T01:19:12.061Z,21.35
2022-08-23T01:20:12.059Z,21.35
2022-08-23T01:21:12.056Z,21.35
2022-08-23T01:22:12.021Z,21.34
2022-08-23T01:23:12.017Z,21.32
2022-08-23T01:24:36.604Z,21.32
2022-08-23T01:25:13.004Z,21.30
2022-08-23T01:26:11.979Z,21.32
2022-08-23T01:27:11.955Z,21.32
2022-08-23T01:28:11.976Z,21.30
2022-08-23T01:29:11.935Z,21.29
2022-08-23T01:30:11.945Z,21.30
2022-08-23T01:31:11.921Z,21.29
2022-08-23T01:32:11.954Z,21.27
2022-08-23T01:33:11.917Z,21.27
2022-08-23T01:34:11.883Z,21.26
2022-08-23T01:35:11.898Z,21.27
2022-08-23T01:36:11.885Z,21.26
2022-08-23T01:37:11.862Z,21.24
2022-08-23T01:38:11.839Z,21.24
2022-08-23T01:39:11.819Z,21.24
2022-08-23T01:40:11.907Z,21.23
2022-08-23T01:41:11.815Z,21.23
2022-08-23T01:42:11.790Z,21.21
2022-08-23T01:43:11.794Z,21.19
2022-08-23T01:44:11.773Z,21.16
2022-08-23T01:45:11.789Z,21.14
2022-08-23T01:46:11.752Z,21.09
2022-08-23T01:47:11.764Z,21.08
2022-08-23T01:48:11.733Z,21.04
2022-08-23T01:49:11.728Z,21.05
2022-08-23T01:50:11.706Z,21.05
2022-08-23T01:51:11.704Z,21.02
2022-08-23T01:52:11.698Z,21.02
2022-08-23T01:53:11.680Z,21.01
2022-08-23T01:54:11.665Z,21.01
2022-08-23T01:55:11.663Z,20.99
2022-08-23T01:56:11.656Z,20.99
2022-08-23T01:57:11.640Z,20.98
2022-08-23T01:58:11.633Z,20.96
2022-08-23T01:59:11.617Z,20.96
2022-08-23T02:00:11.614Z,20.95
2022-08-23T02:01:11.743Z,20.95
2022-08-23T02:02:11.569Z,20.95
2022-08-23T02:03:11.565Z,20.93
2022-08-23T02:04:11.550Z,20.93
2022-08-23T02:05:11.710Z,20.93
2022-08-23T02:06:11.622Z,20.93
2022-08-23T02:07:11.716Z,20.91
2022-08-23T02:08:11.501Z,20.93
2022-08-23T02:09:17.919Z,20.93
2022-08-23T02:10:12.504Z,20.91
2022-08-23T02:11:11.517Z,20.93
2022-08-23T02:12:11.464Z,20.91
2022-08-23T02:13:11.474Z,20.91
2022-08-23T02:14:11.445Z,20.95
2022-08-23T02:15:11.440Z,20.93
2022-08-23T02:16:11.434Z,20.96
2022-08-23T02:17:11.436Z,20.96
2022-08-23T02:18:11.395Z,20.96
2022-08-23T02:19:11.389Z,20.96
2022-08-23T02:20:11.377Z,20.96
2022-08-23T02:21:11.366Z,20.96
2022-08-23T02:22:11.367Z,20.96
2022-08-23T02:23:11.342Z,20.95
2022-08-23T02:24:11.342Z,20.96
2022-08-23T02:25:11.330Z,20.95
2022-08-23T02:26:11.309Z,20.91
2022-08-23T02:27:11.319Z,20.93
2022-08-23T02:28:11.290Z,20.93
2022-08-23T02:29:11.298Z,20.93
2022-08-23T02:30:11.275Z,20.91
2022-08-23T02:31:11.429Z,20.90
2022-08-23T02:32:11.284Z,20.90
2022-08-23T02:33:11.231Z,20.89
2022-08-23T02:34:11.228Z,20.87
2022-08-23T02:35:11.213Z,20.86
2022-08-23T02:36:11.237Z,20.81
2022-08-23T02:37:11.194Z,20.77
2022-08-23T02:38:11.207Z,20.71
2022-08-23T02:39:11.155Z,20.68
2022-08-23T02:40:11.224Z,20.68
2022-08-23T02:41:11.166Z,20.64
2022-08-23T02:42:11.908Z,20.65
2022-08-23T02:43:11.117Z,20.62
2022-08-23T02:44:11.123Z,20.62
2022-08-23T02:45:11.098Z,20.62
2022-08-23T02:46:11.113Z,20.64
2022-08-23T02:47:11.118Z,20.64
2022-08-23T02:48:11.061Z,20.62
2022-08-23T02:49:11.060Z,20.62
2022-08-23T02:50:11.082Z,20.61
2022-08-23T02:51:11.033Z,20.58
2022-08-23T02:52:11.025Z,20.54
2022-08-23T02:53:11.027Z,20.49
2022-08-23T02:54:11.019Z,20.43
2022-08-23T02:55:11.027Z,20.41
2022-08-23T02:56:21.286Z,20.42
2022-08-23T02:57:11.965Z,20.41
2022-08-23T02:58:10.991Z,20.42
2022-08-23T02:59:10.961Z,20.41
2022-08-23T03:00:10.948Z,20.41
2022-08-23T03:01:10.916Z,20.42
2022-08-23T03:02:10.978Z,20.43
2022-08-23T03:03:10.886Z,20.46
2022-08-23T03:04:10.886Z,20.47
2022-08-23T03:05:10.873Z,20.47
2022-08-23T03:06:24.438Z,20.49
2022-08-23T03:07:11.857Z,20.49
2022-08-23T03:08:10.848Z,20.47
2022-08-23T03:09:10.853Z,20.49
2022-08-23T03:10:10.833Z,20.47
2022-08-23T03:11:10.822Z,20.49
2022-08-23T03:12:10.799Z,20.46
2022-08-23T03:13:10.778Z,20.42
2022-08-23T03:14:10.811Z,20.42
2022-08-23T03:15:11.736Z,20.41
2022-08-23T03:16:11.131Z,20.41
2022-08-23T03:17:10.749Z,20.39
2022-08-23T03:18:10.783Z,20.38
2022-08-23T03:19:10.717Z,20.34
2022-08-23T03:20:10.701Z,20.33
2022-08-23T03:21:10.694Z,20.31
2022-08-23T03:22:10.701Z,20.31
2022-08-23T03:23:10.671Z,20.28
2022-08-23T03:24:10.728Z,20.27
2022-08-23T03:25:10.662Z,20.25
2022-08-23T03:26:10.658Z,20.23
2022-08-23T03:27:10.649Z,20.20
2022-08-23T03:28:10.634Z,20.20
2022-08-23T03:29:10.617Z,20.18
2022-08-23T03:30:17.745Z,20.16
2022-08-23T03:31:11.589Z,20.18
2022-08-23T03:32:10.578Z,20.16
2022-08-23T03:33:10.571Z,20.16
2022-08-23T03:34:10.584Z,20.16
2022-08-23T03:35:14.368Z,20.16
2022-08-23T03:36:10.523Z,20.15
2022-08-23T03:37:10.537Z,20.15
2022-08-23T03:38:10.505Z,20.13
2022-08-23T03:39:10.530Z,20.15
2022-08-23T03:40:10.579Z,20.12
2022-08-23T03:41:10.460Z,20.10
2022-08-23T03:42:10.461Z,20.09
2022-08-23T03:43:10.470Z,20.06
2022-08-23T03:44:10.431Z,20.03
2022-08-23T03:45:10.426Z,20.05
2022-08-23T03:46:10.420Z,20.02
2022-08-23T03:47:10.406Z,20.00
2022-08-23T03:48:10.414Z,19.98
2022-08-23T03:49:10.392Z,20.00
2022-08-23T03:50:10.386Z,19.98
2022-08-23T03:51:10.355Z,19.98
2022-08-23T03:52:10.356Z,19.97
2022-08-23T03:53:12.107Z,19.97
2022-08-23T03:54:10.343Z,19.97
2022-08-23T03:55:10.316Z,19.95
2022-08-23T03:56:10.297Z,19.94
2022-08-23T03:57:10.293Z,19.93
2022-08-23T03:58:10.320Z,19.91
2022-08-23T03:59:10.287Z,19.90
2022-08-23T04:00:10.258Z,19.91
2022-08-23T04:01:10.247Z,19.91
2022-08-23T04:02:10.327Z,19.91
2022-08-23T04:03:10.295Z,19.90
2022-08-23T04:04:10.236Z,19.91
2022-08-23T04:05:10.230Z,19.91
2022-08-23T04:06:10.206Z,19.90
2022-08-23T04:07:10.212Z,19.91
2022-08-23T04:08:10.193Z,19.88
2022-08-23T04:09:10.197Z,19.88
2022-08-23T04:10:10.153Z,19.88
2022-08-23T04:11:10.140Z,19.90
2022-08-23T04:12:17.308Z,19.88
2022-08-23T04:13:11.114Z,19.90
2022-08-23T04:14:10.113Z,19.90
2022-08-23T04:15:10.096Z,19.90
2022-08-23T04:16:10.118Z,19.90
2022-08-23T04:17:10.096Z,19.90
2022-08-23T04:18:10.089Z,19.88
2022-08-23T04:19:10.046Z,19.80
2022-08-23T04:20:10.045Z,19.75
2022-08-23T04:21:10.023Z,19.70
2022-08-23T04:22:10.021Z,19.72
2022-08-23T04:23:10.015Z,19.69
2022-08-23T04:24:10.019Z,19.72
2022-08-23T04:25:26.142Z,19.73
2022-08-23T04:26:11.019Z,19.73
2022-08-23T04:27:09.965Z,19.75
2022-08-23T04:28:09.960Z,19.76
2022-08-23T04:29:09.949Z,19.76
2022-08-23T04:30:09.971Z,19.78
2022-08-23T04:31:09.965Z,19.78
2022-08-23T04:32:11.649Z,19.79
2022-08-23T04:33:11.838Z,19.79
2022-08-23T04:34:09.903Z,19.79
2022-08-23T04:35:09.875Z,19.83
2022-08-23T04:36:09.906Z,19.83
2022-08-23T04:37:09.868Z,19.83
2022-08-23T04:38:23.974Z,19.84
2022-08-23T04:39:10.829Z,19.84
2022-08-23T04:40:09.929Z,19.84
2022-08-23T04:41:11.224Z,19.83
2022-08-23T04:42:14.304Z,19.84
2022-08-23T04:43:10.806Z,19.83
2022-08-23T04:44:09.792Z,19.84
2022-08-23T04:45:09.756Z,19.80
2022-08-23T04:46:09.782Z,19.83
2022-08-23T04:47:09.764Z,19.80
2022-08-23T04:48:11.689Z,19.80
2022-08-23T04:49:09.718Z,19.83
2022-08-23T04:50:09.731Z,19.84
2022-08-23T04:51:09.718Z,19.86
2022-08-23T04:52:09.730Z,19.86
2022-08-23T04:53:09.685Z,19.86
2022-08-23T04:54:09.689Z,19.86
2022-08-23T04:55:09.691Z,19.87
2022-08-23T04:56:09.679Z,19.88
2022-08-23T04:57:09.655Z,19.90
2022-08-23T04:58:09.654Z,19.90
2022-08-23T04:59:09.612Z,19.91
2022-08-23T05:00:09.641Z,19.90
2022-08-23T05:01:09.657Z,19.93
2022-08-23T05:02:09.846Z,19.94
2022-08-23T05:03:09.686Z,19.94
2022-08-23T05:04:09.638Z,19.97
2022-08-23T05:05:09.549Z,19.97
2022-08-23T05:06:09.754Z,19.97
2022-08-23T05:07:09.557Z,19.97
2022-08-23T05:08:09.526Z,19.95
2022-08-23T05:09:09.515Z,19.94
2022-08-23T05:10:09.505Z,19.91
2022-08-23T05:11:09.506Z,19.90
2022-08-23T05:12:09.546Z,19.88
2022-08-23T05:13:09.574Z,19.87
2022-08-23T05:14:11.415Z,19.86
2022-08-23T05:15:11.398Z,19.83
2022-08-23T05:16:09.437Z,19.79
2022-08-23T05:17:09.459Z,19.75
2022-08-23T05:18:09.410Z,19.72
2022-08-23T05:19:09.391Z,19.69
2022-08-23T05:20:09.391Z,19.69
2022-08-23T05:21:09.375Z,19.66
2022-08-23T05:22:09.410Z,19.66
2022-08-23T05:23:09.363Z,19.69
2022-08-23T05:24:09.359Z,19.70
2022-08-23T05:25:09.352Z,19.72
2022-08-23T05:26:09.323Z,19.73
2022-08-23T05:27:13.383Z,19.76
2022-08-23T05:28:09.324Z,19.79
2022-08-23T05:29:09.301Z,19.79
2022-08-23T05:30:09.298Z,19.80
2022-08-23T05:31:11.530Z,19.84
2022-08-23T05:32:09.263Z,19.84
2022-08-23T05:33:09.255Z,19.87
2022-08-23T05:34:11.198Z,19.87
2022-08-23T05:35:09.234Z,19.88
2022-08-23T05:36:09.222Z,19.87
2022-08-23T05:37:09.205Z,19.86
2022-08-23T05:38:09.216Z,19.87
2022-08-23T05:39:09.183Z,19.86
2022-08-23T05:40:09.249Z,19.86
2022-08-23T05:41:09.183Z,19.80
2022-08-23T05:42:09.154Z,19.73
2022-08-23T05:43:09.142Z,19.69
2022-08-23T05:44:09.414Z,19.66
2022-08-23T05:45:09.110Z,19.65
2022-08-23T05:46:13.004Z,19.65
2022-08-23T05:47:10.288Z,19.66
2022-08-23T05:48:09.081Z,19.66
2022-08-23T05:49:09.099Z,19.68
2022-08-23T05:50:09.064Z,19.69
2022-08-23T05:51:09.051Z,19.72
2022-08-23T05:52:09.035Z,19.72
2022-08-23T05:53:09.034Z,19.75
2022-08-23T05:54:09.972Z,19.75
2022-08-23T05:55:09.006Z,19.78
2022-08-23T05:56:08.998Z,19.80
2022-08-23T05:57:08.991Z,19.80
2022-08-23T05:58:09.017Z,19.84
2022-08-23T05:59:12.381Z,19.86
2022-08-23T06:00:08.960Z,19.90
2022-08-23T06:01:08.975Z,19.90
2022-08-23T06:02:08.952Z,19.91
2022-08-23T06:03:08.931Z,19.95
2022-08-23T06:04:08.909Z,20.02
2022-08-23T06:05:09.867Z,20.06
2022-08-23T06:06:08.902Z,20.06
2022-08-23T06:07:08.876Z,20.10
2022-08-23T06:08:08.880Z,20.12
2022-08-23T06:09:08.865Z,20.12
2022-08-23T06:10:08.849Z,20.20
2022-08-23T06:11:09.835Z,20.25
2022-08-23T06:12:08.827Z,20.31
2022-08-23T06:13:08.821Z,20.38
2022-08-23T06:14:08.879Z,20.46
2022-08-23T06:15:08.811Z,20.49
2022-08-23T06:16:15.165Z,20.54
2022-08-23T06:17:09.791Z,20.64
2022-08-23T06:18:08.763Z,20.66
2022-08-23T06:19:08.744Z,20.72
2022-08-23T06:20:08.770Z,20.79
2022-08-23T06:21:08.724Z,20.81
2022-08-23T06:22:08.730Z,20.86
2022-08-23T06:23:08.695Z,20.90
2022-08-23T06:24:08.705Z,20.96
2022-08-23T06:25:09.765Z,21.01
2022-08-23T06:26:08.675Z,21.05
2022-08-23T06:27:08.680Z,21.11
2022-08-23T06:28:08.647Z,21.09
2022-08-23T06:29:09.439Z,21.09
2022-08-23T06:30:08.629Z,21.09
2022-08-23T06:31:08.673Z,21.09
2022-08-23T06:32:08.664Z,21.11
2022-08-23T06:33:08.594Z,21.11
2022-08-23T06:34:08.662Z,21.08
2022-08-23T06:35:32.915Z,21.08
2022-08-23T06:36:09.582Z,21.13
2022-08-23T06:37:08.559Z,21.13
2022-08-23T06:38:08.533Z,21.16
2022-08-23T06:39:08.523Z,21.14
2022-08-23T06:40:08.646Z,21.16
2022-08-23T06:41:08.940Z,21.24
2022-08-23T06:42:28.016Z,21.23
2022-08-23T06:43:09.499Z,21.21
2022-08-23T06:44:08.477Z,21.17
2022-08-23T06:45:08.456Z,21.19
2022-08-23T06:46:08.466Z,21.19
2022-08-23T06:47:08.456Z,21.17
2022-08-23T06:48:08.425Z,21.09
2022-08-23T06:49:09.374Z,21.11
2022-08-23T06:50:08.415Z,21.16
2022-08-23T06:51:08.418Z,21.14
2022-08-23T06:52:08.386Z,21.19
2022-08-23T06:53:09.975Z,21.19
2022-08-23T06:54:08.359Z,21.21
2022-08-23T06:55:13.115Z,21.23
2022-08-23T06:56:09.359Z,21.29
2022-08-23T06:57:08.337Z,21.35
2022-08-23T06:58:08.310Z,21.42
2022-08-23T06:59:08.334Z,21.45
2022-08-23T07:00:08.313Z,21.53
2022-08-23T07:01:14.676Z,21.59
2022-08-23T07:02:09.469Z,21.64
2022-08-23T07:03:08.350Z,21.72
2022-08-23T07:04:08.256Z,21.78
2022-08-23T07:05:08.237Z,21.82
2022-08-23T07:06:08.229Z,21.82
2022-08-23T07:07:11.348Z,21.88
2022-08-23T07:08:08.207Z,21.94
2022-08-23T07:09:08.199Z,21.99
2022-08-23T07:10:08.180Z,22.07
2022-08-23T07:11:08.191Z,22.09
2022-08-23T07:12:08.160Z,22.12
2022-08-23T07:13:08.152Z,22.16
2022-08-23T07:14:08.145Z,22.16
2022-08-23T07:15:08.142Z,22.19
2022-08-23T07:16:08.172Z,22.22
2022-08-23T07:17:08.128Z,22.25
2022-08-23T07:18:08.099Z,22.28
2022-08-23T07:19:09.097Z,22.32
2022-08-23T07:20:08.101Z,22.31
2022-08-23T07:21:08.061Z,22.25
2022-08-23T07:22:08.082Z,22.25
2022-08-23T07:23:08.053Z,22.27
2022-08-23T07:24:08.041Z,22.34
2022-08-23T07:25:08.046Z,22.37
2022-08-23T07:26:08.094Z,22.39
2022-08-23T07:27:08.105Z,22.41
2022-08-23T07:28:11.633Z,22.37
2022-08-23T07:29:07.971Z,22.41
2022-08-23T07:30:07.993Z,22.52
2022-08-23T07:31:11.388Z,22.60
2022-08-23T07:32:09.004Z,22.71
2022-08-23T07:33:08.085Z,22.77
2022-08-23T07:34:07.948Z,22.83
2022-08-23T07:35:07.938Z,22.86
2022-08-23T07:36:07.895Z,22.90
2022-08-23T07:37:15.587Z,22.97
2022-08-23T07:38:08.875Z,23.02
2022-08-23T07:39:07.868Z,23.05
2022-08-23T07:40:07.921Z,23.11
2022-08-23T07:41:07.857Z,23.15
2022-08-23T07:42:22.857Z,23.20
2022-08-23T07:43:08.821Z,23.24
2022-08-23T07:44:07.824Z,23.29
2022-08-23T07:45:09.987Z,23.34
2022-08-23T07:46:07.831Z,23.39
2022-08-23T07:47:07.784Z,23.45
2022-08-23T07:48:07.780Z,23.49
2022-08-23T07:49:07.762Z,23.50
2022-08-23T07:50:07.760Z,23.50
2022-08-23T07:51:07.739Z,23.49
2022-08-23T07:52:07.717Z,23.50
2022-08-23T07:53:07.723Z,23.50
2022-08-23T07:54:07.735Z,23.49
2022-08-23T07:55:07.736Z,23.55
2022-08-23T07:56:07.683Z,23.57
2022-08-23T07:57:07.886Z,23.55
2022-08-23T07:58:07.652Z,23.58
2022-08-23T07:59:07.646Z,23.53
2022-08-23T08:00:07.640Z,23.57
2022-08-23T08:01:07.642Z,23.58
2022-08-23T08:02:07.647Z,23.62
2022-08-23T08:03:07.784Z,23.70
2022-08-23T08:04:07.612Z,23.77
2022-08-23T08:05:07.623Z,23.85
2022-08-23T08:06:07.612Z,23.90
2022-08-23T08:07:22.833Z,23.90
2022-08-23T08:08:08.560Z,23.94
2022-08-23T08:09:07.583Z,23.94
2022-08-23T08:10:07.535Z,23.97
2022-08-23T08:11:07.521Z,24.00
2022-08-23T08:12:07.506Z,24.05
2022-08-23T08:13:07.511Z,24.08
2022-08-23T08:14:07.477Z,24.13
2022-08-23T08:15:07.486Z,24.17
2022-08-23T08:16:07.535Z,24.20
2022-08-23T08:17:07.478Z,24.24
2022-08-23T08:18:07.444Z,24.27
2022-08-23T08:19:07.961Z,24.27
2022-08-23T08:20:07.439Z,24.26
2022-08-23T08:21:07.405Z,24.26
2022-08-23T08:22:07.422Z,24.27
2022-08-23T08:23:07.398Z,24.29
2022-08-23T08:24:07.369Z,24.31
2022-08-23T08:25:07.368Z,24.37
2022-08-23T08:26:07.348Z,24.39
2022-08-23T08:27:07.928Z,24.39
2022-08-23T08:28:09.464Z,24.42
2022-08-23T08:29:08.335Z,24.44
2022-08-23T08:30:07.299Z,24.49
2022-08-23T08:31:07.319Z,24.52
2022-08-23T08:32:07.291Z,24.53
2022-08-23T08:33:07.360Z,24.57
2022-08-23T08:34:07.307Z,24.60
2022-08-23T08:35:07.285Z,24.60
2022-08-23T08:36:07.298Z,24.61
2022-08-23T08:37:07.289Z,24.67
2022-08-23T08:38:07.233Z,24.71
2022-08-23T08:39:07.218Z,24.77
2022-08-23T08:40:07.266Z,24.82
2022-08-23T08:41:07.194Z,24.87
2022-08-23T08:42:07.202Z,24.90
2022-08-23T08:43:07.207Z,24.90
2022-08-23T08:44:07.244Z,24.91
2022-08-23T08:45:07.209Z,24.92
2022-08-23T08:46:07.251Z,24.94
2022-08-23T08:47:07.139Z,24.94
2022-08-23T08:48:11.376Z,24.98
2022-08-23T08:49:08.125Z,25.01
2022-08-23T08:50:07.093Z,25.00
2022-08-23T08:51:07.082Z,25.02
2022-08-23T08:52:07.495Z,25.06
2022-08-23T08:53:07.075Z,25.06
2022-08-23T08:54:07.077Z,25.10
2022-08-23T08:55:07.061Z,25.15
2022-08-23T08:56:07.089Z,25.19
2022-08-23T08:57:07.040Z,25.22
2022-08-23T08:58:07.048Z,25.24
2022-08-23T08:59:07.035Z,25.25
2022-08-23T09:00:07.054Z,25.28
2022-08-23T09:01:06.986Z,25.30
2022-08-23T09:02:07.208Z,25.30
2022-08-23T09:03:08.044Z,25.32
2022-08-23T09:04:06.959Z,25.34
2022-08-23T09:05:06.949Z,25.35
2022-08-23T09:06:06.951Z,25.34
2022-08-23T09:07:06.967Z,25.37
2022-08-23T09:08:06.918Z,25.39
2022-08-23T09:09:06.908Z,25.43
2022-08-23T09:10:06.897Z,25.49
2022-08-23T09:11:06.873Z,25.53
2022-08-23T09:12:06.895Z,25.59
2022-08-23T09:13:06.887Z,25.62
2022-08-23T09:14:06.828Z,25.67
2022-08-23T09:15:06.866Z,25.71
2022-08-23T09:16:06.891Z,25.72
2022-08-23T09:17:06.808Z,25.79
2022-08-23T09:18:06.831Z,25.83
2022-08-23T09:19:06.810Z,25.87
2022-08-23T09:20:06.791Z,25.89
2022-08-23T09:21:06.762Z,25.87
2022-08-23T09:22:06.788Z,25.87
2022-08-23T09:23:06.752Z,25.87
2022-08-23T09:24:06.743Z,25.90
2022-08-23T09:25:10.229Z,25.90
2022-08-23T09:26:06.726Z,25.86
2022-08-23T09:27:06.792Z,25.87
2022-08-23T09:28:06.690Z,25.90
2022-08-23T09:29:06.672Z,25.91
2022-08-23T09:30:06.662Z,25.94
2022-08-23T09:31:08.276Z,25.98
2022-08-23T09:32:06.641Z,26.02
2022-08-23T09:33:06.646Z,26.05
2022-08-23T09:34:08.572Z,26.09
2022-08-23T09:35:06.618Z,26.15
2022-08-23T09:36:06.633Z,26.18
2022-08-23T09:37:06.587Z,26.22
2022-08-23T09:38:06.584Z,26.24
2022-08-23T09:39:06.571Z,26.22
2022-08-23T09:40:06.593Z,26.25
2022-08-23T09:41:06.553Z,26.21
2022-08-23T09:42:06.539Z,26.18
2022-08-23T09:43:06.525Z,26.15
2022-08-23T09:44:06.503Z,26.15
2022-08-23T09:45:06.550Z,26.12
2022-08-23T09:46:06.546Z,26.12
2022-08-23T09:47:06.476Z,26.20
2022-08-23T09:48:06.492Z,26.20
2022-08-23T09:49:06.460Z,26.24
2022-08-23T09:50:06.438Z,26.28
2022-08-23T09:51:06.432Z,26.32
2022-08-23T09:52:06.415Z,26.40
2022-08-23T09:53:06.699Z,26.44
2022-08-23T09:54:06.388Z,26.44
2022-08-23T09:55:06.414Z,26.39
2022-08-23T09:56:06.396Z,26.36
2022-08-23T09:57:06.547Z,26.32
2022-08-23T09:58:06.371Z,26.36
2022-08-23T09:59:06.342Z,26.40
2022-08-23T10:00:06.324Z,26.42
2022-08-23T10:01:06.512Z,26.49
2022-08-23T10:02:06.419Z,26.49
2022-08-23T10:03:06.326Z,26.55
2022-08-23T10:04:06.292Z,26.58
2022-08-23T10:05:06.360Z,26.59
2022-08-23T10:06:06.292Z,26.65
2022-08-23T10:07:06.259Z,26.72
2022-08-23T10:08:10.274Z,26.74
2022-08-23T10:09:06.226Z,26.74
2022-08-23T10:10:06.226Z,26.81
2022-08-23T10:11:08.238Z,26.84
2022-08-23T10:12:07.493Z,26.83
2022-08-23T10:13:06.190Z,26.80
2022-08-23T10:14:06.180Z,26.79
2022-08-23T10:15:06.183Z,26.80
2022-08-23T10:16:06.208Z,26.84
2022-08-23T10:17:06.151Z,26.89
2022-08-23T10:18:06.131Z,26.94
2022-08-23T10:19:06.130Z,26.96
2022-08-23T10:20:06.105Z,26.98
2022-08-23T10:21:06.289Z,27.02
2022-08-23T10:22:06.103Z,27.04
2022-08-23T10:23:08.048Z,27.06
2022-08-23T10:24:06.088Z,27.11
2022-08-23T10:25:06.080Z,27.13
2022-08-23T10:26:06.044Z,27.17
2022-08-23T10:27:06.027Z,27.14
2022-08-23T10:28:06.030Z,27.13
2022-08-23T10:29:06.038Z,27.09
2022-08-23T10:30:06.017Z,27.09
2022-08-23T10:31:06.048Z,27.09
2022-08-23T10:32:06.000Z,26.99
2022-08-23T10:33:05.982Z,26.94
2022-08-23T10:34:05.952Z,26.87
2022-08-23T10:35:05.945Z,26.86
2022-08-23T10:36:05.980Z,26.86
2022-08-23T10:37:05.970Z,26.92
2022-08-23T10:38:05.911Z,26.87
2022-08-23T10:39:05.911Z,26.84
2022-08-23T10:40:05.920Z,26.86
2022-08-23T10:41:05.886Z,26.94
2022-08-23T10:42:05.862Z,26.99
2022-08-23T10:43:05.866Z,27.06
2022-08-23T10:44:05.860Z,27.11
2022-08-23T10:45:05.838Z,27.19
2022-08-23T10:46:07.818Z,27.21
2022-08-23T10:47:05.832Z,27.23
2022-08-23T10:48:05.805Z,27.24
2022-08-23T10:49:05.800Z,27.21
2022-08-23T10:50:05.807Z,27.20
2022-08-23T10:51:05.773Z,27.13
2022-08-23T10:52:05.761Z,27.06
2022-08-23T10:53:05.750Z,27.02
2022-08-23T10:54:05.739Z,27.02
2022-08-23T10:55:05.750Z,27.04
2022-08-23T10:56:05.710Z,27.05
2022-08-23T10:57:05.719Z,27.06
2022-08-23T10:58:05.715Z,27.13
2022-08-23T10:59:05.685Z,27.14
2022-08-23T11:00:05.680Z,27.17
2022-08-23T11:01:07.687Z,27.19
2022-08-23T11:02:05.660Z,27.19
2022-08-23T11:03:05.751Z,27.19
2022-08-23T11:04:05.642Z,27.17
2022-08-23T11:05:05.622Z,27.11
2022-08-23T11:06:05.627Z,27.05
2022-08-23T11:07:05.598Z,27.02
2022-08-23T11:08:05.599Z,27.04
2022-08-23T11:09:05.585Z,27.05
2022-08-23T11:10:05.597Z,27.09
2022-08-23T11:11:05.557Z,27.14
2022-08-23T11:12:05.627Z,27.19
2022-08-23T11:13:05.542Z,27.26
2022-08-23T11:14:05.568Z,27.35
2022-08-23T11:15:05.545Z,27.43
2022-08-23T11:16:05.551Z,27.51
2022-08-23T11:17:05.547Z,27.54
2022-08-23T11:18:05.483Z,27.62
2022-08-23T11:19:05.470Z,27.66
2022-08-23T11:20:05.456Z,27.70
2022-08-23T11:21:05.532Z,27.69
2022-08-23T11:22:05.455Z,27.74
2022-08-23T11:23:05.467Z,27.67
2022-08-23T11:24:05.411Z,27.66
2022-08-23T11:25:06.341Z,27.59
2022-08-23T11:26:05.408Z,27.57
2022-08-23T11:27:06.758Z,27.54
2022-08-23T11:28:05.414Z,27.54
2022-08-23T11:29:05.354Z,27.50
2022-08-23T11:30:05.340Z,27.46
2022-08-23T11:31:05.388Z,27.48
2022-08-23T11:32:05.342Z,27.47
2022-08-23T11:33:05.318Z,27.46
2022-08-23T11:34:05.325Z,27.47
2022-08-23T11:35:05.303Z,27.47
2022-08-23T11:36:05.293Z,27.48
2022-08-23T11:37:05.270Z,27.48
2022-08-23T11:38:05.546Z,27.48
2022-08-23T11:39:05.275Z,27.51
2022-08-23T11:40:05.325Z,27.58
2022-08-23T11:41:05.251Z,27.57
2022-08-23T11:42:06.168Z,27.57
2022-08-23T11:43:05.203Z,27.58
2022-08-23T11:44:05.203Z,27.64
2022-08-23T11:45:05.188Z,27.70
2022-08-23T11:46:05.224Z,27.79
2022-08-23T11:47:05.177Z,27.88
2022-08-23T11:48:05.159Z,27.92
2022-08-23T11:49:05.138Z,27.96
2022-08-23T11:50:05.154Z,27.91
2022-08-23T11:51:05.123Z,27.84
2022-08-23T11:52:05.135Z,27.79
2022-08-23T11:53:05.117Z,27.76
2022-08-23T11:54:05.088Z,27.64
2022-08-23T11:55:05.073Z,27.61
2022-08-23T11:56:05.062Z,27.59
2022-08-23T11:57:05.048Z,27.51
2022-08-23T11:58:05.063Z,27.53
2022-08-23T11:59:08.738Z,27.53
2022-08-23T12:00:05.059Z,27.54
2022-08-23T12:01:05.008Z,27.57
2022-08-23T12:02:05.026Z,27.59
2022-08-23T12:03:05.145Z,27.67
2022-08-23T12:04:05.113Z,27.76
2022-08-23T12:05:07.058Z,27.86
2022-08-23T12:06:04.956Z,27.95
2022-08-23T12:07:04.944Z,28.04
2022-08-23T12:08:05.258Z,28.10
2022-08-23T12:09:04.944Z,28.17
2022-08-23T12:10:06.884Z,28.25
2022-08-23T12:11:05.186Z,28.23
2022-08-23T12:12:04.905Z,28.17
2022-08-23T12:13:04.901Z,28.14
2022-08-23T12:14:04.872Z,28.06
2022-08-23T12:15:04.880Z,28.07
2022-08-23T12:16:04.924Z,28.13
2022-08-23T12:17:04.864Z,28.19
2022-08-23T12:18:04.839Z,28.23
2022-08-23T12:19:06.784Z,28.33
2022-08-23T12:20:04.844Z,28.36
2022-08-23T12:21:04.801Z,28.32
2022-08-23T12:22:04.870Z,28.35
2022-08-23T12:23:06.732Z,28.32
2022-08-23T12:24:04.901Z,28.25
2022-08-23T12:25:04.774Z,28.21
2022-08-23T12:26:04.747Z,28.21
2022-08-23T12:27:04.758Z,28.28
2022-08-23T12:28:04.721Z,28.32
2022-08-23T12:29:04.699Z,28.25
2022-08-23T12:30:04.894Z,28.14
2022-08-23T12:31:07.948Z,28.14
2022-08-23T12:32:04.688Z,28.22
2022-08-23T12:33:04.678Z,28.32
2022-08-23T12:34:04.653Z,28.44
2022-08-23T12:35:04.656Z,28.53
2022-08-23T12:36:04.652Z,28.60
2022-08-23T12:37:09.366Z,28.63
2022-08-23T12:38:04.627Z,28.63
2022-08-23T12:39:04.614Z,28.66
2022-08-23T12:40:05.422Z,28.66
2022-08-23T12:41:04.575Z,28.68
2022-08-23T12:42:04.671Z,28.65
2022-08-23T12:43:04.557Z,28.65
2022-08-23T12:44:04.559Z,28.65
2022-08-23T12:45:05.252Z,28.73
2022-08-23T12:46:04.987Z,28.80
2022-08-23T12:47:04.515Z,28.87
2022-08-23T12:48:04.563Z,28.97
2022-08-23T12:49:04.483Z,28.96
2022-08-23T12:50:04.480Z,29.00
2022-08-23T12:51:04.477Z,28.97
2022-08-23T12:52:04.452Z,28.97